Bakersville, Ohio
Current Conditions -  °F | °C
As of 5:13 PM on Tuesday 21 Oct 2014 (Local Time) from KPHD Reporting Station
Overcast Overcast  
Wind Chill: 45°   Ceiling: 1700
Heat Index: 49°   Visibility: 9mi
Dew Point: 43°   Wind: 9mph
Humidity: 80%   Direction: 320°NW
Pressure: 30.01"   Gusts: NA
Location:  40.36°N, 81.65°W
Report Text: KPHD 212113Z AUTO 32008KT 9SM BKN017 BKN023 OVC033 09/06 A3001 RMK AO2 T00940061
Loading
Personal Weather Stations






























Interactive Weather Map
Tropical Storm Tracking
New forecast layout! Learn more

10-Day Weather Forecast

Advertisements
Track Severe Weather on mobile